Latest Weather Observations for Tennant Creek

IDD60801

Issued at 9:01 am CST Monday 20 November 2017 (issued every 30 minutes, with the page automatically refreshed every 10 minutes)

About weather observations | Map of weather stations | Latest weather observations for NT | Other Formats
Station Details ID: 015135 Name: TENNANT CREEK AIRPORT Lat: -19.64 Lon: 134.18 Height: 375.7 m
Data from the previous 72 hours. | See also: Recent months at Tennant Creek
Date/Time
CST
Temp
°C
App
Temp
°C
Dew
Point
°C
Rel
Hum
%
Delta-T
°C
Wind Press
QNH
hPa
Press
MSL
hPa
Rain since
9am
mm
Dir  Spd
km/h
Gust
km/h
Spd
kts
Gust
kts
20/09:00am 31.3 32.0 17.9 44 8.7 W 11 15 6 8 1010.4 1007.5 0.0
20/08:30am 30.9 31.2 17.9 45 8.5 WSW 13 17 7 9 1010.5 1007.6 0.0
20/08:00am 30.3 31.4 18.1 48 7.9 WNW 9 13 5 7 1010.4 1007.5 0.0
20/07:30am 29.4 30.7 17.6 49 7.6 SW 7 11 4 6 1010.5 1007.6 0.0
20/07:00am 29.2 30.2 17.7 50 7.4 WNW 9 11 5 6 1010.6 1007.7 0.0
20/06:30am 28.3 30.4 18.1 54 6.6 N 4 9 2 5 1010.3 1007.4 0.0
20/06:00am 28.5 29.5 17.7 52 7.0 ENE 9 15 5 8 1009.8 1006.9 0.0
20/05:30am 28.0 29.3 18.4 56 6.2 SW 9 13 5 7 1009.0 1006.2 0.0
20/05:00am 28.3 28.7 18.1 54 6.6 W 13 19 7 10 1008.8 1006.0 0.0
20/04:30am 29.4 29.7 16.9 47 8.0 S 11 13 6 7 1008.3 1005.4 0.0
20/04:00am 28.7 30.4 18.5 54 6.6 S 7 9 4 5 1008.1 1005.2 0.0
20/03:30am 29.0 30.0 17.8 50 7.2 NW 9 9 5 5 1008.4 1005.5 0.0
20/03:00am 28.7 29.8 17.9 52 7.0 WSW 9 9 5 5 1008.5 1005.6 0.0
20/02:30am 30.2 30.0 16.6 44 8.7 N 13 17 7 9 1008.6 1005.8 0.0
20/02:00am 28.8 28.4 18.0 52 7.0 NNW 17 20 9 11 1008.7 1005.9 0.0
20/01:30am 28.7 27.5 17.6 51 7.1 N 20 26 11 14 1009.1 1006.3 0.0
20/01:00am 28.2 27.3 17.7 53 6.7 NW 19 32 10 17 1010.0 1007.1 0.0
20/12:43am 28.1 26.2 16.7 50 7.2 W 22 33 12 18 1009.7 1006.8 0.0
20/12:30am 32.4 32.0 14.1 33 11.3 W 9 15 5 8 1009.6 1006.7 0.0
20/12:00am 31.7 32.6 15.2 36 10.4 NNE 4 7 2 4 1009.0 1006.2 0.0
 
Date/Time
CST
Temp
°C
App
Temp
°C
Dew
Point
°C
Rel
Hum
%
Delta-T
°C
Wind Press
QNH
hPa
Press
MSL
hPa
Rain since
9am
mm
Dir  Spd
km/h
Gust
km/h
Spd
kts
Gust
kts
19/11:30pm 31.5 31.7 14.6 36 10.5 NNE 7 9 4 5 1009.0 1006.2 0.0
19/11:00pm 31.5 31.1 14.2 35 10.7 N 9 9 5 5 1009.0 1006.2 0.0
19/10:30pm 31.6 30.6 14.7 36 10.5 NNE 13 15 7 8 1008.9 1006.1 0.0
19/10:00pm 31.8 31.7 14.9 36 10.5 N 9 9 5 5 1008.8 1006.0 0.0
19/09:30pm 31.9 33.3 15.4 37 10.4 E 2 9 1 5 1008.5 1005.6 0.0
19/09:00pm 31.4 33.9 17.3 43 9.1 CALM 0 0 0 0 1008.2 1005.3 0.0
19/08:30pm 32.1 34.3 16.4 39 10.0 CALM 0 0 0 0 1008.0 1005.1 0.0
19/08:00pm 33.3 34.1 14.8 32 11.6 ESE 4 7 2 4 1007.9 1005.0 0.0
19/07:30pm 34.4 34.3 13.8 29 12.8 SSE 7 7 4 4 1007.6 1004.7 0.0
19/07:00pm 35.6 34.9 11.9 24 14.3 S 7 9 4 5 1007.4 1004.5 0.0
19/06:30pm 36.3 35.4 12.5 24 14.6 S 9 13 5 7 1007.2 1004.3 0.0
19/06:00pm 37.8 37.2 11.7 21 15.9 SW 6 7 3 4 1006.9 1004.0 0.0
19/05:30pm 38.2 37.1 12.0 21 16.1 SW 9 19 5 10 1006.8 1003.9 0.0
19/05:00pm 38.6 37.8 11.6 20 16.5 SW 7 13 4 7 1006.8 1003.9 0.0
19/04:30pm 38.4 37.5 11.5 20 16.4 SW 7 15 4 8 1006.7 1003.8 0.0
19/04:00pm 38.4 37.4 12.2 21 16.1 WSW 9 15 5 8 1006.9 1004.0 0.0
19/03:30pm 38.7 37.1 11.7 20 16.5 SSE 11 17 6 9 1007.2 1004.3 0.0
19/03:00pm 39.3 38.1 12.9 20 16.5 SSW 11 26 6 14 1007.4 1004.5 0.0
19/02:30pm 38.0 37.0 11.1 20 16.3 NW 7 13 4 7 1007.8 1004.9 0.0
19/02:00pm 38.4 36.6 12.2 21 16.1 SSW 13 24 7 13 1008.2 1005.3 0.0
19/01:30pm 37.2 35.5 12.6 23 15.2 NNW 13 19 7 10 1008.8 1006.0 0.0
19/01:00pm 37.7 36.0 13.7 24 15.0 NNW 15 32 8 17 1009.4 1006.5 0.0
19/12:30pm 36.6 35.2 12.1 23 15.0 NNW 11 22 6 12 1009.9 1007.0 0.0
19/12:00pm 36.1 35.3 14.1 26 13.8 NNW 11 24 6 13 1010.2 1007.3 0.0
19/11:30am 35.9 35.3 15.6 30 13.0 WNW 13 22 7 12 1010.7 1007.8 0.0
19/11:00am 35.3 34.3 15.6 31 12.6 NW 15 30 8 16 1011.0 1008.2 0.0
19/10:30am 35.4 34.6 17.1 33 11.9 NW 17 30 9 16 1011.1 1008.3 0.0
19/10:00am 34.6 33.5 17.8 37 11.0 NW 20 30 11 16 1011.3 1008.5 0.0
19/09:30am 33.7 32.6 18.6 40 10.0 NW 22 32 12 17 1011.3 1008.5 0.0
19/09:00am 33.0 31.3 18.0 41 9.8 NNW 24 33 13 18 1011.4 1008.6 0.0
19/08:30am 32.3 29.7 17.7 41 9.5 NW 28 37 15 20 1011.1 1008.3 0.0
19/08:00am 30.8 27.8 17.8 45 8.4 NNW 30 39 16 21 1011.0 1008.2 0.0
19/07:30am 29.8 27.9 17.6 48 7.9 NNW 24 35 13 19 1011.2 1008.4 0.0
19/07:00am 27.9 26.8 17.4 52 6.7 NNW 19 28 10 15 1010.9 1008.0 0.0
19/06:30am 26.8 26.0 15.2 49 7.1 NNW 13 17 7 9 1010.6 1007.7 0.0
19/06:00am 27.1 25.7 15.5 49 7.2 N 17 20 9 11 1010.3 1007.4 0.0
19/05:30am 25.2 22.4 9.9 38 8.6 N 15 20 8 11 1010.0 1007.1 0.0
19/05:00am 25.3 22.5 10.0 38 8.6 NNE 15 17 8 9 1009.9 1007.0 0.0
19/04:30am 26.0 23.5 9.8 36 9.1 NNE 13 17 7 9 1009.9 1007.0 0.0
19/04:00am 25.1 23.3 10.9 41 8.1 ENE 11 13 6 7 1009.5 1006.6 0.0
19/03:30am 24.7 24.1 11.6 44 7.6 NNE 6 9 3 5 1009.4 1006.5 0.0
19/03:00am 25.1 24.1 10.9 41 8.1 NE 7 9 4 5 1009.4 1006.5 0.0
19/02:30am 25.1 25.0 12.0 44 7.6 NNW 4 9 2 5 1009.5 1006.6 0.0
19/02:00am 26.2 24.8 10.8 38 8.8 E 9 11 5 6 1009.5 1006.6 0.0
19/01:30am 26.2 25.0 11.5 40 8.5 E 9 9 5 5 1009.6 1006.7 0.0
19/01:00am 27.6 25.9 9.9 33 10.0 ESE 9 11 5 6 1009.7 1006.8 0.0
19/12:30am 28.2 26.4 9.5 31 10.6 ESE 9 11 5 6 1010.0 1007.1 0.0
19/12:00am 28.7 26.9 9.4 30 10.9 SE 9 11 5 6 1010.1 1007.2 0.0
 
Date/Time
CST
Temp
°C
App
Temp
°C
Dew
Point
°C
Rel
Hum
%
Delta-T
°C
Wind Press
QNH
hPa
Press
MSL
hPa
Rain since
9am
mm
Dir  Spd
km/h
Gust
km/h
Spd
kts
Gust
kts
18/11:30pm 28.0 26.4 10.2 33 10.2 ESE 9 11 5 6 1010.2 1007.3 0.0
18/11:00pm 29.3 27.2 8.4 27 11.7 SE 9 13 5 7 1010.3 1007.4 0.0
18/10:30pm 29.6 27.7 9.2 28 11.6 ESE 9 13 5 7 1010.4 1007.5 0.0
18/10:00pm 30.5 27.6 8.3 25 12.4 E 13 15 7 8 1010.2 1007.3 0.0
18/09:30pm 30.7 28.0 9.0 26 12.3 E 13 15 7 8 1010.0 1007.1 0.0
18/09:00pm 31.6 29.1 8.0 23 13.3 E 11 13 6 7 1009.8 1006.9 0.0
18/08:30pm 31.9 29.5 8.8 24 13.2 E 11 11 6 6 1009.5 1006.6 0.0
18/08:00pm 32.4 30.7 9.9 25 13.0 E 9 11 5 6 1009.0 1006.2 0.0
18/07:30pm 33.7 31.6 8.3 21 14.5 ENE 9 11 5 6 1008.8 1006.0 0.0
18/07:00pm 35.2 32.1 5.6 16 16.3 ESE 11 15 6 8 1008.4 1005.5 0.0
18/06:30pm 36.2 33.3 6.4 16 16.7 SE 11 15 6 8 1008.1 1005.2 0.0
18/06:00pm 37.1 33.8 6.2 15 17.3 ESE 13 22 7 12 1007.9 1005.0 0.0
18/05:30pm 37.1 32.8 5.2 14 17.6 SE 17 30 9 16 1007.9 1005.0 0.0
18/05:00pm 37.5 33.6 5.5 14 17.8 E 15 19 8 10 1007.9 1005.0 0.0
18/04:30pm 38.0 33.7 6.9 15 17.7 SE 19 35 10 19 1008.0 1005.1 0.0
18/04:00pm 37.9 35.5 6.8 15 17.6 ENE 9 28 5 15 1008.1 1005.2 0.0
18/03:30pm 37.4 34.1 6.4 15 17.5 ESE 13 22 7 12 1008.5 1005.6 0.0
18/03:00pm 37.3 34.6 7.3 16 17.1 SSE 11 19 6 10 1008.7 1005.9 0.0
18/02:30pm 38.0 34.1 6.9 15 17.7 S 17 28 9 15 1009.1 1006.3 0.0
18/02:00pm 37.7 34.3 7.6 16 17.3 ESE 15 28 8 15 1009.6 1006.7 0.0
18/01:30pm 36.9 33.5 7.8 17 16.7 ENE 15 26 8 14 1010.1 1007.2 0.0
18/01:00pm 36.4 34.1 9.1 19 15.9 NNE 11 24 6 13 1010.5 1007.6 0.0
18/12:30pm 35.9 33.5 8.7 19 15.7 NE 11 20 6 11 1011.1 1008.3 0.0
18/12:00pm 35.3 32.0 8.2 19 15.5 NNE 15 24 8 13 1011.5 1008.7 0.0
18/11:30am 35.3 32.4 9.7 21 15.0 N 15 24 8 13 1012.1 1009.2 0.0
18/11:00am 34.2 30.7 8.8 21 14.6 NE 17 26 9 14 1012.4 1009.5 0.0
18/10:30am 34.5 30.9 9.7 22 14.5 ENE 19 30 10 16 1012.6 1009.7 0.0
18/10:00am 33.2 29.1 8.6 22 14.0 NE 20 30 11 16 1012.9 1010.0 0.0
18/09:30am 32.4 28.4 9.2 24 13.3 ENE 20 28 11 15 1013.1 1010.2 0.0
18/09:00am 31.6 27.7 10.9 28 12.2 ENE 22 32 12 17 1013.4 1010.6 0.0
18/08:30am 31.1 28.8 12.9 32 11.0 E 17 24 9 13 1013.3 1010.4 0.0
18/08:00am 29.4 29.3 16.9 47 8.0 ESE 13 17 7 9 1013.3 1010.4 0.0
18/07:30am 28.4 29.3 17.6 52 6.9 ESE 9 13 5 7 1013.2 1010.3 0.0
18/07:00am 27.1 28.2 17.0 54 6.4 ENE 7 11 4 6 1012.8 1009.9 0.0
18/06:30am 25.4 25.7 16.0 56 5.8 ENE 9 11 5 6 1012.5 1009.6 0.0
18/06:00am 24.5 24.3 15.7 58 5.4 ENE 11 13 6 7 1012.2 1009.3 0.0
18/05:30am 24.2 22.9 13.7 52 6.2 ENE 13 17 7 9 1012.1 1009.2 0.0
18/05:00am 24.4 22.0 12.7 48 6.9 E 17 20 9 11 1011.8 1009.0 0.0
18/04:30am 24.9 22.4 12.2 45 7.4 E 17 22 9 12 1011.5 1008.7 0.0
18/04:00am 25.3 22.6 11.8 43 7.8 E 17 19 9 10 1011.3 1008.5 0.0
18/03:30am 26.2 22.9 11.5 40 8.5 E 20 24 11 13 1011.0 1008.2 0.0
18/03:00am 26.1 23.4 11.8 41 8.3 E 17 22 9 12 1011.0 1008.2 0.0
18/02:30am 26.5 24.0 12.2 41 8.4 E 17 20 9 11 1010.8 1007.9 0.0
18/02:00am 27.2 24.2 12.0 38 8.9 E 19 22 10 12 1011.0 1008.2 0.0
18/01:30am 28.0 25.8 12.0 37 9.4 E 15 19 8 10 1011.1 1008.3 0.0
18/01:00am 27.7 26.0 12.5 39 9.0 E 13 15 7 8 1011.4 1008.6 0.0
18/12:30am 27.7 26.5 12.9 40 8.8 E 11 13 6 7 1011.6 1008.8 0.0
18/12:00am 28.7 26.9 12.2 36 9.8 ESE 13 15 7 8 1011.7 1008.9 0.0
 
Date/Time
CST
Temp
°C
App
Temp
°C
Dew
Point
°C
Rel
Hum
%
Delta-T
°C
Wind Press
QNH
hPa
Press
MSL
hPa
Rain since
9am
mm
Dir  Spd
km/h
Gust
km/h
Spd
kts
Gust
kts
17/11:30pm 28.8 27.6 12.7 37 9.6 ESE 11 15 6 8 1011.7 1008.9 0.0
17/11:00pm 29.0 27.8 12.8 36 9.7 ESE 11 11 6 6 1011.8 1009.0 0.0
17/10:30pm 29.6 28.2 12.1 34 10.4 ESE 11 17 6 9 1011.8 1009.0 0.0
17/10:00pm 29.5 28.2 12.4 35 10.2 ENE 11 15 6 8 1011.4 1008.6 0.0
17/09:30pm 30.2 28.8 12.1 32 10.8 E 11 13 6 7 1011.0 1008.2 0.0
17/09:00pm 30.4 29.4 12.3 33 10.8 ENE 9 11 5 6 1010.7 1007.8 0.0
17/08:30pm 31.7 30.1 11.5 29 12.0 E 11 13 6 7 1010.4 1007.5 0.0
17/08:00pm 32.5 30.6 10.5 26 12.9 ESE 11 13 6 7 1010.0 1007.1 0.0
17/07:30pm 33.3 31.3 10.0 24 13.6 SE 11 13 6 7 1009.8 1006.9 0.0
17/07:00pm 34.0 31.9 9.9 23 14.1 SE 11 15 6 8 1009.5 1006.6 0.0
17/06:30pm 35.0 32.0 9.4 21 14.9 SE 15 17 8 9 1009.1 1006.3 0.0
17/06:00pm 35.7 32.5 8.5 19 15.7 ESE 15 19 8 10 1008.8 1006.0 0.0
17/05:30pm 36.0 33.6 8.7 19 15.8 ESE 11 19 6 10 1008.7 1005.9 0.0
17/05:00pm 36.2 34.1 9.7 20 15.6 ESE 11 26 6 14 1008.8 1006.0 0.0
17/04:30pm 35.4 32.3 9.0 20 15.3 SE 15 26 8 14 1008.8 1006.0 0.0
17/04:00pm 36.7 34.7 10.1 20 15.8 SSW 11 20 6 11 1008.9 1006.1 0.0
17/03:30pm 35.9 32.6 9.4 20 15.5 ENE 17 28 9 15 1009.3 1006.4 0.0
17/03:00pm 36.1 34.1 10.3 21 15.3 SE 11 24 6 13 1009.4 1006.5 0.0
17/02:30pm 35.6 32.0 9.9 21 15.1 E 19 24 10 13 1009.9 1007.0 0.0
17/02:00pm 35.6 33.2 9.9 21 15.1 ENE 13 22 7 12 1010.5 1007.6 0.0
17/01:30pm 35.1 32.4 10.2 22 14.7 ENE 15 24 8 13 1010.9 1008.0 0.0
17/01:00pm 34.4 32.2 10.9 24 14.0 NE 13 20 7 11 1011.3 1008.5 0.0
17/12:30pm 34.7 32.8 10.5 23 14.3 ENE 11 17 6 9 1011.8 1009.0 0.0
17/12:00pm 33.9 29.9 9.2 22 14.3 ENE 20 37 11 20 1012.4 1009.5 0.0
17/11:30am 33.1 29.3 9.2 23 13.8 ENE 19 30 10 16 1012.8 1009.9 0.0
17/11:00am 32.8 29.3 10.2 25 13.2 E 19 28 10 15 1013.3 1010.4 0.0
17/10:30am 32.1 27.5 9.6 25 13.0 ENE 24 33 13 18 1013.7 1010.9 0.0
17/10:00am 31.8 27.4 10.5 27 12.4 E 24 33 13 18 1014.0 1011.2 0.0
17/09:30am 30.4 26.8 11.9 32 11.0 E 22 33 12 18 1014.2 1011.4 0.0

Other Formats:

Comma delimited format used in spreadsheet applications
http://www.bom.gov.au/fwo/IDD60801/IDD60801.94238.axf

JavaScript Object Notation format (JSON) in row-major order
http://www.bom.gov.au/fwo/IDD60801/IDD60801.94238.json